Time;durP1;ratioP1;P1;durP2;ratioP2;P2;SDS_P1;SDS_P2;PMS_P1;PMS_P2;Temp;Humidity;BMP_temperature;BMP_pressure;BME280_temperature;BME280_humidity;BME280_pressure;Samples;Min_cycle;Max_cycle;Signal;HPM_P1;HPM_P2
2021/08/11 00:00:12;;;;;;;37.93;11.07;;;;;;;14.95;100.00;101079.56;4955379;28;20203;-77
2021/08/11 00:02:40;;;;;;;21.50;11.13;;;;;;;14.89;100.00;101077.97;4936902;29;20191;-76
2021/08/11 00:05:06;;;;;;;55.57;12.03;;;;;;;14.75;100.00;101072.38;4952717;29;20191;-76
2021/08/11 00:07:36;;;;;;;41.30;11.73;;;;;;;14.77;100.00;101072.91;4937384;29;20701;-76
2021/08/11 00:10:02;;;;;;;27.57;10.60;;;;;;;14.74;100.00;101078.97;4937002;29;20221;-76
2021/08/11 00:12:29;;;;;;;28.10;11.40;;;;;;;14.86;100.00;101084.84;4968979;28;20302;-76
2021/08/11 00:14:57;;;;;;;36.23;10.90;;;;;;;14.72;100.00;101077.59;4937047;29;20647;-76
2021/08/11 00:17:23;;;;;;;24.53;10.77;;;;;;;14.77;100.00;101083.03;4968720;28;20230;-76
2021/08/11 00:19:51;;;;;;;25.07;11.63;;;;;;;14.84;100.00;101078.84;4968597;28;20179;-76
2021/08/11 00:22:19;;;;;;;32.37;11.43;;;;;;;14.76;100.00;101075.91;4968306;28;20231;-76
2021/08/11 00:24:45;;;;;;;34.37;11.23;;;;;;;14.79;100.00;101076.16;4952426;29;20231;-76
2021/08/11 00:27:11;;;;;;;50.83;11.70;;;;;;;14.75;100.00;101074.31;4920289;29;20662;-76
2021/08/11 00:29:37;;;;;;;32.53;11.63;;;;;;;14.67;100.00;101074.94;4952137;29;20186;-77
2021/08/11 00:32:05;;;;;;;42.87;11.50;;;;;;;14.70;100.00;101077.09;4949730;28;20226;-76
2021/08/11 00:34:33;;;;;;;41.27;11.43;;;;;;;14.71;100.00;101074.06;4952897;28;20233;-76
2021/08/11 00:37:01;;;;;;;40.40;11.87;;;;;;;14.75;100.00;101074.31;4951248;29;20230;-76
2021/08/11 00:39:31;;;;;;;50.73;12.27;;;;;;;14.80;100.00;101079.72;4952274;28;20186;-76
2021/08/11 00:41:57;;;;;;;35.50;11.17;;;;;;;14.99;100.00;101080.63;4963505;28;20227;-76
2021/08/11 00:44:22;;;;;;;36.33;11.47;;;;;;;14.87;100.00;101080.19;4968063;28;20653;-76
2021/08/11 00:46:50;;;;;;;32.10;11.20;;;;;;;14.76;100.00;101073.19;4951511;29;20718;-76
2021/08/11 00:49:19;;;;;;;36.97;11.63;;;;;;;14.71;100.00;101073.25;4951734;28;20190;-76
2021/08/11 00:51:46;;;;;;;23.30;11.73;;;;;;;14.85;100.00;101077.75;4936238;28;20608;-76
2021/08/11 00:54:20;;;;;;;29.77;11.57;;;;;;;14.77;100.00;101077.56;4936241;29;20715;-76
2021/08/11 00:56:50;;;;;;;42.53;12.37;;;;;;;14.80;100.00;101077.81;4951435;28;20219;-76
2021/08/11 00:59:18;;;;;;;60.40;12.10;;;;;;;14.82;100.00;101072.06;4951190;29;20277;-76
2021/08/11 01:01:46;;;;;;;30.30;11.40;;;;;;;14.75;100.00;101074.31;4951204;28;20226;-76
2021/08/11 01:04:11;;;;;;;46.37;12.63;;;;;;;14.86;100.00;101081.31;4935921;29;20191;-76
2021/08/11 01:06:40;;;;;;;47.50;12.70;;;;;;;14.84;100.00;101078.03;4935483;29;20282;-76
2021/08/11 01:09:08;;;;;;;66.03;12.63;;;;;;;14.97;100.00;101082.81;4951767;28;20191;-76
2021/08/11 01:11:45;;;;;;;49.57;12.27;;;;;;;14.70;100.00;101077.09;4951149;28;20230;-76
2021/08/11 01:14:17;;;;;;;44.27;11.80;;;;;;;14.75;100.00;101085.25;4920047;29;20293;-76
2021/08/11 01:16:43;;;;;;;31.73;11.87;;;;;;;14.83;100.00;101088.16;4951570;28;20599;-76
2021/08/11 01:19:09;;;;;;;43.57;11.30;;;;;;;14.81;100.00;101082.16;4967360;28;20198;-76
2021/08/11 01:21:48;;;;;;;33.67;11.67;;;;;;;14.72;100.00;101088.53;4935199;29;20223;-76
2021/08/11 01:24:35;;;;;;;42.67;11.80;;;;;;;14.60;100.00;101079.13;4952468;28;20187;-76
2021/08/11 01:27:19;;;;;;;42.13;11.30;;;;;;;14.55;100.00;101085.44;4953467;28;20297;-76
2021/08/11 01:30:09;;;;;;;37.40;11.10;;;;;;;14.55;100.00;101085.44;4951102;28;20190;-76
2021/08/11 01:32:50;;;;;;;18.23;11.20;;;;;;;14.58;100.00;101086.75;4946509;29;20235;-75
2021/08/11 01:35:22;;;;;;;36.80;11.27;;;;;;;14.51;100.00;101081.66;4947709;28;20271;-76
2021/08/11 01:37:50;;;;;;;45.53;11.17;;;;;;;14.44;100.00;101092.09;4951417;29;20190;-76
2021/08/11 01:40:23;;;;;;;21.27;10.63;;;;;;;14.70;100.00;101083.34;4935576;28;20684;-77
2021/08/11 01:42:50;;;;;;;34.73;10.77;;;;;;;14.59;100.00;101088.41;4951655;28;20654;-77
2021/08/11 01:45:30;;;;;;;20.30;10.63;;;;;;;14.49;100.00;101089.31;4923838;28;20191;-76
2021/08/11 01:48:00;;;;;;;24.53;10.27;;;;;;;14.48;100.00;101090.41;4955395;28;20179;-76
2021/08/11 01:50:34;;;;;;;37.40;10.13;;;;;;;14.34;100.00;101100.41;4954429;28;20227;-77
2021/08/11 01:53:00;;;;;;;26.43;10.73;;;;;;;14.35;100.00;101096.53;4954915;29;20634;-76
2021/08/11 01:55:32;;;;;;;31.67;10.80;;;;;;;14.49;100.00;101096.72;4939095;28;20225;-76
2021/08/11 01:57:58;;;;;;;34.23;10.47;;;;;;;14.61;100.00;101106.16;4951040;29;20689;-75
2021/08/11 02:00:30;;;;;;;37.23;10.20;;;;;;;14.50;100.00;101092.88;4966509;28;20219;-76
2021/08/11 02:02:58;;;;;;;36.80;9.73;;;;;;;14.33;100.00;101096.00;4926256;29;20175;-76
2021/08/11 02:05:30;;;;;;;34.83;9.90;;;;;;;14.45;100.00;101091.00;4954436;28;20614;-76
2021/08/11 02:08:02;;;;;;;36.80;9.87;;;;;;;14.50;100.00;101093.66;4963039;28;20187;-75
2021/08/11 02:10:31;;;;;;;19.43;9.10;;;;;;;14.45;100.00;101093.75;4954845;28;20649;-76
2021/08/11 02:12:58;;;;;;;19.53;8.53;;;;;;;14.27;100.00;101094.44;4962550;28;20202;-76
2021/08/11 02:15:24;;;;;;;26.07;9.60;;;;;;;14.34;100.00;101100.41;4970264;28;20179;-75
2021/08/11 02:17:50;;;;;;;13.83;9.00;;;;;;;14.22;100.00;101090.13;4951210;28;20187;-74
2021/08/11 02:20:18;;;;;;;29.47;9.57;;;;;;;14.30;100.00;101098.50;4934690;28;20208;-75
2021/08/11 02:22:44;;;;;;;17.00;8.57;;;;;;;14.28;100.00;101090.63;4954530;29;20167;-75
2021/08/11 02:25:15;;;;;;;31.23;9.40;;;;;;;14.38;100.00;101089.72;4937760;28;20279;-75
2021/08/11 02:27:54;;;;;;;22.20;9.23;;;;;;;14.07;100.00;101099.22;4923888;28;20274;-75
2021/08/11 02:30:23;;;;;;;83.60;11.30;;;;;;;13.95;100.00;101093.25;4938261;28;20565;-75
2021/08/11 02:32:57;;;;;;;16.57;8.63;;;;;;;14.09;100.00;101091.56;4954369;29;20301;-76
2021/08/11 02:35:36;;;;;;;24.10;8.80;;;;;;;13.99;100.00;101107.16;4954113;28;20187;-75
2021/08/11 02:38:27;;;;;;;33.17;9.47;;;;;;;14.18;100.00;101094.53;4937992;29;20402;-75
2021/08/11 02:41:05;;;;;;;29.30;8.97;;;;;;;14.11;100.00;101094.03;4922569;29;20229;-75
2021/08/11 02:43:36;;;;;;;23.77;9.50;;;;;;;14.17;100.00;101098.34;4970420;28;20186;-75
2021/08/11 02:46:10;;;;;;;32.87;9.47;;;;;;;13.99;100.00;101098.97;4953206;29;20750;-75
2021/08/11 02:48:40;;;;;;;37.53;9.63;;;;;;;13.99;100.00;101098.97;4938472;29;20202;-76
2021/08/11 02:51:08;;;;;;;54.23;9.77;;;;;;;13.90;100.00;101100.69;4953407;29;20313;-76
2021/08/11 02:53:36;;;;;;;66.97;9.53;;;;;;;13.91;100.00;101105.84;4930276;28;20211;-77
2021/08/11 02:56:04;;;;;;;70.13;9.20;;;;;;;13.85;100.00;101114.38;4952190;28;20589;-75
2021/08/11 02:58:31;;;;;;;59.70;9.77;;;;;;;13.81;100.00;101120.66;4925010;29;20183;-76
2021/08/11 03:01:01;;;;;;;44.93;9.63;;;;;;;13.96;100.00;101113.22;4949586;29;20226;-76
2021/08/11 03:03:27;;;;;;;59.53;9.93;;;;;;;13.86;100.00;101111.38;4927463;28;20233;-76
2021/08/11 03:05:56;;;;;;;84.23;10.27;;;;;;;14.01;100.00;101121.34;4921446;29;20229;-76
2021/08/11 03:08:22;;;;;;;110.27;10.97;;;;;;;13.99;100.00;101120.81;4937721;29;20230;-76
2021/08/11 03:10:50;;;;;;;48.73;8.90;;;;;;;13.81;100.00;101123.41;4953051;28;20250;-76
2021/08/11 03:13:18;;;;;;;66.80;9.43;;;;;;;13.77;100.00;101120.41;4924801;29;20211;-75
2021/08/11 03:15:44;;;;;;;24.33;8.30;;;;;;;13.80;100.00;101122.59;4969030;28;20703;-75
2021/08/11 03:18:10;;;;;;;32.33;8.60;;;;;;;13.78;100.00;101129.44;4919126;29;20309;-76
2021/08/11 03:20:38;;;;;;;24.57;8.27;;;;;;;13.81;100.00;101121.50;4949238;28;20611;-76
2021/08/11 03:23:06;;;;;;;35.77;8.43;;;;;;;13.74;100.00;101121.00;4968486;28;20654;-76
2021/08/11 03:25:33;;;;;;;36.47;8.83;;;;;;;13.86;100.00;101107.81;4937298;28;20214;-77
2021/08/11 03:28:00;;;;;;;40.80;9.03;;;;;;;13.75;100.00;101121.81;4953200;28;20230;-76
2021/08/11 03:30:31;;;;;;;8.30;7.07;;;;;;;13.70;100.00;101125.38;4936973;28;20230;-76
2021/08/11 03:32:56;;;;;;;10.77;7.47;;;;;;;13.66;100.00;101121.59;4953534;28;20242;-75
2021/08/11 03:35:23;;;;;;;28.00;7.30;;;;;;;13.44;100.00;101114.03;4937137;28;20237;-75
2021/08/11 03:37:49;;;;;;;17.20;7.40;;;;;;;13.55;100.00;101121.91;4937072;29;20614;-75
2021/08/11 03:40:21;;;;;;;113.43;10.67;;;;;;;13.34;100.00;101120.34;4936604;28;20216;-76
2021/08/11 03:42:47;;;;;;;17.07;6.73;;;;;;;13.28;100.00;101121.47;4952966;29;20667;-75
2021/08/11 03:45:16;;;;;;;12.40;7.00;;;;;;;13.48;100.00;101127.69;4950394;28;20190;-75
2021/08/11 03:47:42;;;;;;;7.30;6.60;;;;;;;13.43;100.00;101134.25;4952878;28;20187;-75
2021/08/11 03:50:12;;;;;;;7.10;6.60;;;;;;;13.44;100.00;101135.88;4964771;28;20215;-75
2021/08/11 03:52:42;;;;;;;22.77;7.23;;;;;;;13.55;100.00;101121.91;4952986;29;20727;-75
2021/08/11 03:55:09;;;;;;;40.13;7.63;;;;;;;13.47;100.00;101128.75;4948321;28;20187;-75
2021/08/11 03:57:35;;;;;;;60.77;8.00;;;;;;;13.44;100.00;101124.97;4952761;28;20198;-75
2021/08/11 04:00:04;;;;;;;28.07;6.97;;;;;;;13.42;100.00;101133.41;4949256;29;20714;-75
2021/08/11 04:02:37;;;;;;;8.27;6.77;;;;;;;13.50;100.00;101130.94;4965047;28;20227;-74
2021/08/11 04:05:06;;;;;;;7.03;6.37;;;;;;;13.56;100.00;101123.53;4948460;29;20213;-75
2021/08/11 04:07:31;;;;;;;15.67;6.60;;;;;;;13.57;100.00;101134.19;4936213;29;20699;-75
2021/08/11 04:09:57;;;;;;;5.83;5.33;;;;;;;13.50;100.00;101130.94;4953982;28;20211;-76
2021/08/11 04:12:22;;;;;;;5.37;4.97;;;;;;;13.63;100.00;101119.41;4952825;29;20240;-75
2021/08/11 04:14:48;;;;;;;6.00;5.50;;;;;;;13.51;100.00;101126.28;4952603;29;20179;-75
2021/08/11 04:17:16;;;;;;;5.60;5.20;;;;;;;13.40;100.00;101132.06;4951909;28;20266;-75
2021/08/11 04:19:44;;;;;;;6.17;5.63;;;;;;;13.39;100.00;101144.06;4968486;28;20234;-76
2021/08/11 04:22:09;;;;;;;6.00;5.60;;;;;;;13.55;100.00;101130.94;4952227;29;20222;-76
2021/08/11 04:24:37;;;;;;;6.40;5.90;;;;;;;13.69;100.00;101139.31;4936800;29;20187;-75
2021/08/11 04:27:02;;;;;;;6.30;5.80;;;;;;;13.62;100.00;101134.16;4951612;28;20289;-75
2021/08/11 04:29:30;;;;;;;6.50;6.00;;;;;;;13.46;100.00;101134.53;4954135;28;20199;-75
2021/08/11 04:31:56;;;;;;;6.73;6.13;;;;;;;13.52;100.00;101139.66;4952898;28;20301;-76
2021/08/11 04:34:22;;;;;;;8.83;6.57;;;;;;;13.52;100.00;101131.47;4953145;28;20744;-76
2021/08/11 04:36:51;;;;;;;7.47;6.80;;;;;;;13.58;100.00;101135.81;4951744;29;20385;-75
2021/08/11 04:39:19;;;;;;;9.43;7.73;;;;;;;13.81;100.00;101140.63;4936340;29;20287;-75
2021/08/11 04:41:45;;;;;;;17.17;8.17;;;;;;;13.79;100.00;101139.25;4951667;28;20334;-76
2021/08/11 04:44:13;;;;;;;34.27;8.50;;;;;;;13.77;100.00;101142.25;4952200;29;20191;-76
2021/08/11 04:46:39;;;;;;;10.37;8.70;;;;;;;13.85;100.00;101144.41;4952970;28;20238;-77
2021/08/11 04:49:04;;;;;;;9.77;8.77;;;;;;;14.05;100.00;101139.69;4951902;29;20238;-75
2021/08/11 04:51:32;;;;;;;16.37;9.27;;;;;;;14.07;100.00;101137.47;4951482;28;20708;-75
2021/08/11 04:53:58;;;;;;;26.13;9.97;;;;;;;13.99;100.00;101142.69;4952622;28;20223;-75
2021/08/11 04:56:23;;;;;;;28.90;10.27;;;;;;;13.79;100.00;101141.97;4967667;28;20238;-76
2021/08/11 04:58:49;;;;;;;16.97;10.47;;;;;;;13.99;100.00;101148.16;4952982;29;20191;-76
2021/08/11 05:01:19;;;;;;;14.23;10.83;;;;;;;14.02;100.00;101142.97;4963982;28;20287;-76
2021/08/11 05:03:45;;;;;;;14.93;11.10;;;;;;;14.23;100.00;101139.84;4936625;29;20221;-76
2021/08/11 05:06:10;;;;;;;23.47;12.03;;;;;;;14.35;100.00;101140.28;4951654;28;20262;-77
2021/08/11 05:08:41;;;;;;;14.87;12.63;;;;;;;14.48;100.00;101150.56;4967694;28;20210;-76
2021/08/11 05:11:09;;;;;;;14.40;11.73;;;;;;;14.49;100.00;101157.66;4966906;28;20242;-77
2021/08/11 05:13:35;;;;;;;18.83;13.80;;;;;;;14.28;100.00;101158.09;4952168;29;20222;-77
2021/08/11 05:16:00;;;;;;;32.70;15.20;;;;;;;14.28;100.00;101156.19;4968392;28;20222;-76
2021/08/11 05:18:26;;;;;;;18.07;13.60;;;;;;;14.60;100.00;101158.41;4954654;28;20191;-77
2021/08/11 05:20:54;;;;;;;31.77;12.97;;;;;;;14.43;100.00;101147.03;4957762;28;20240;-76
2021/08/11 05:23:19;;;;;;;43.20;12.87;;;;;;;14.53;100.00;101158.72;4973305;28;20233;-76
2021/08/11 05:25:46;;;;;;;59.57;12.10;;;;;;;14.41;100.00;101154.72;4956625;28;20222;-76
2021/08/11 05:28:11;;;;;;;61.90;10.60;;;;;;;14.31;100.00;101161.06;4972681;28;20183;-76
2021/08/11 05:30:37;;;;;;;26.07;10.80;;;;;;;14.30;100.00;101164.94;4955764;29;20226;-76
2021/08/11 05:33:03;;;;;;;61.33;10.73;;;;;;;14.31;100.00;101169.28;4955595;29;20347;-76
2021/08/11 05:35:29;;;;;;;65.03;11.60;;;;;;;14.71;100.00;101158.03;4955454;28;20258;-76
2021/08/11 05:37:56;;;;;;;24.97;11.00;;;;;;;14.86;100.00;101157.91;4955290;29;20190;-76
2021/08/11 05:40:22;;;;;;;37.87;10.57;;;;;;;15.08;100.00;101143.44;4955150;28;21934;-76
2021/08/11 05:42:47;;;;;;;40.17;11.57;;;;;;;15.23;100.00;101164.38;4956176;29;20187;-76
2021/08/11 05:45:13;;;;;;;36.72;11.43;;;;;;;15.01;100.00;101155.81;4955415;28;20189;-77
2021/08/11 05:47:39;;;;;;;37.77;11.30;;;;;;;15.05;100.00;101157.72;4956830;29;20183;-76
2021/08/11 05:50:05;;;;;;;35.00;11.60;;;;;;;15.22;100.00;101158.09;4954864;28;20616;-76
2021/08/11 05:52:33;;;;;;;63.05;11.98;;;;;;;15.18;100.00;101165.25;4954913;28;20194;-76
2021/08/11 05:55:01;;;;;;;35.87;11.60;;;;;;;15.32;100.00;101166.19;4971164;28;20196;-76
2021/08/11 05:57:27;;;;;;;33.17;11.57;;;;;;;15.66;100.00;101158.66;4954909;29;20231;-76
2021/08/11 05:59:54;;;;;;;15.80;11.30;;;;;;;15.81;100.00;101165.56;4955327;29;20190;-77
2021/08/11 06:02:21;;;;;;;23.75;11.73;;;;;;;15.92;100.00;101169.81;4953833;28;20226;-76
2021/08/11 06:05:04;;;;;;;16.42;12.02;;;;;;;16.08;100.00;101167.66;4969758;28;20191;-76
2021/08/11 06:07:30;;;;;;;27.67;12.10;;;;;;;16.13;100.00;101168.41;4970381;28;20227;-75
2021/08/11 06:09:55;;;;;;;30.83;12.43;;;;;;;16.22;100.00;101161.19;4971122;28;20210;-76
2021/08/11 06:12:23;;;;;;;25.42;12.02;;;;;;;16.38;100.00;101170.81;4966963;28;20223;-76
2021/08/11 06:14:51;;;;;;;17.73;11.53;;;;;;;16.35;100.00;101165.94;4954839;29;20207;-76
2021/08/11 06:17:17;;;;;;;51.95;12.25;;;;;;;16.57;100.00;101166.94;4938213;28;20773;-76
2021/08/11 06:19:43;;;;;;;30.63;12.43;;;;;;;16.56;100.00;101171.63;4953901;29;20194;-76
2021/08/11 06:22:13;;;;;;;16.42;11.43;;;;;;;15.73;100.00;101183.78;4954957;29;20218;-77
2021/08/11 06:24:39;;;;;;;30.65;11.63;;;;;;;15.57;100.00;101180.41;4970724;28;20310;-77
2021/08/11 06:27:05;;;;;;;17.95;12.15;;;;;;;15.63;100.00;101187.44;4958295;28;20310;-76
2021/08/11 06:29:30;;;;;;;13.07;11.45;;;;;;;16.07;100.00;101183.31;4919098;29;20566;-76
2021/08/11 06:31:56;;;;;;;24.23;13.20;;;;;;;15.99;100.00;101185.91;4945811;28;20220;-77
2021/08/11 06:34:25;;;;;;;17.33;13.00;;;;;;;15.87;100.00;101200.00;4952255;29;20204;-77
2021/08/11 06:36:53;;;;;;;14.18;12.73;;;;;;;15.94;100.00;101192.25;4926848;29;20218;-77
2021/08/11 06:39:22;;;;;;;20.17;12.93;;;;;;;15.86;100.00;101203.88;4954867;28;20202;-76
2021/08/11 06:41:47;;;;;;;24.80;12.80;;;;;;;16.13;100.00;101203.25;4970484;28;20704;-78
2021/08/11 06:44:16;;;;;;;22.33;12.77;;;;;;;15.88;100.00;101201.66;4956524;28;20199;-78
2021/08/11 06:46:45;;;;;;;20.40;12.77;;;;;;;15.83;100.00;101198.97;4941660;28;20219;-77
2021/08/11 06:49:12;;;;;;;17.25;13.48;;;;;;;15.60;100.00;101204.47;4957330;29;20289;-78
2021/08/11 06:51:38;;;;;;;17.98;12.82;;;;;;;16.07;100.00;101194.28;4957186;28;20226;-78
2021/08/11 06:54:09;;;;;;;14.63;12.75;;;;;;;16.34;100.00;101205.44;4923953;29;20214;-77
2021/08/11 06:56:37;;;;;;;14.80;13.07;;;;;;;16.66;100.00;101203.56;4956563;28;20223;-77
2021/08/11 06:59:05;;;;;;;14.25;12.85;;;;;;;16.43;100.00;101209.97;4971149;28;20207;-78
2021/08/11 07:01:35;;;;;;;14.60;13.30;;;;;;;16.80;100.00;101212.66;4957253;28;20301;-78
2021/08/11 07:04:03;;;;;;;17.55;12.25;;;;;;;16.45;100.00;101215.16;4974066;28;20228;-79
2021/08/11 07:06:29;;;;;;;14.20;12.80;;;;;;;16.01;100.00;101217.38;4956439;29;20874;-80
2021/08/11 07:08:54;;;;;;;13.20;12.00;;;;;;;16.29;100.00;101219.22;4957093;29;20191;-79
2021/08/11 07:11:22;;;;;;;15.50;12.90;;;;;;;16.88;100.00;101234.75;4957345;29;20238;-79
2021/08/11 07:13:48;;;;;;;14.20;12.85;;;;;;;16.59;100.00;101220.41;4958759;29;20219;-77
2021/08/11 07:16:13;;;;;;;14.60;13.20;;;;;;;16.77;100.00;101211.31;4957255;28;20223;-78
2021/08/11 07:18:41;;;;;;;15.13;13.63;;;;;;;16.77;100.00;101219.56;4959451;29;20183;-79
2021/08/11 07:21:09;;;;;;;14.48;13.18;;;;;;;16.86;100.00;101234.22;4977754;28;20221;-80
2021/08/11 07:23:37;;;;;;;15.98;14.27;;;;;;;16.54;100.00;101232.56;4961705;28;20184;-77
2021/08/11 07:26:05;;;;;;;16.42;14.77;;;;;;;16.48;100.00;101234.56;4977268;28;20240;-77
2021/08/11 07:28:30;;;;;;;15.23;13.68;;;;;;;16.21;100.00;101242.63;4988540;28;20191;-77
2021/08/11 07:30:56;;;;;;;15.25;13.73;;;;;;;16.51;100.00;101238.66;4975914;29;20274;-76
2021/08/11 07:33:26;;;;;;;15.32;13.93;;;;;;;16.88;100.00;101245.72;4986490;28;20242;-77
2021/08/11 07:35:55;;;;;;;15.18;13.63;;;;;;;16.90;100.00;101248.97;4960518;28;20242;-77
2021/08/11 07:38:23;;;;;;;14.93;13.18;;;;;;;16.98;100.00;101245.56;4980851;28;20184;-77
2021/08/11 07:40:48;;;;;;;13.90;12.60;;;;;;;16.97;100.00;101254.91;4965744;28;20238;-78
2021/08/11 07:43:14;;;;;;;14.73;13.38;;;;;;;17.57;100.00;101244.53;4957602;29;20214;-78
2021/08/11 07:45:40;;;;;;;14.63;13.20;;;;;;;18.00;100.00;101240.34;4972889;28;20278;-79
2021/08/11 07:48:08;;;;;;;13.93;12.73;;;;;;;18.33;100.00;101238.00;4973005;28;20183;-78
2021/08/11 07:50:35;;;;;;;14.13;12.82;;;;;;;18.41;100.00;101241.97;4941544;29;20227;-79
2021/08/11 07:53:04;;;;;;;13.30;12.10;;;;;;;18.23;100.00;101256.66;4957167;29;20265;-78
2021/08/11 07:55:29;;;;;;;14.05;12.75;;;;;;;17.87;100.00;101243.91;4956497;28;20219;-78
2021/08/11 07:57:58;;;;;;;14.35;12.93;;;;;;;18.21;100.00;101247.91;4958195;29;20206;-78
2021/08/11 08:00:26;;;;;;;13.60;12.23;;;;;;;18.41;100.00;101252.97;4959147;28;20206;-77
2021/08/11 08:02:51;;;;;;;13.35;11.50;;;;;;;18.83;100.00;101261.59;4945989;28;20615;-78
2021/08/11 08:05:18;;;;;;;11.68;10.68;;;;;;;18.84;100.00;101250.28;4957754;28;20190;-78
2021/08/11 08:07:43;;;;;;;13.13;11.82;;;;;;;19.01;100.00;101256.78;4958878;29;20191;-78
2021/08/11 08:10:12;;;;;;;11.77;10.68;;;;;;;18.98;100.00;101254.63;4958307;28;20796;-79
2021/08/11 08:12:43;;;;;;;11.95;10.85;;;;;;;19.06;100.00;101256.63;4956543;29;20187;-77
2021/08/11 08:15:12;;;;;;;12.43;11.38;;;;;;;19.10;100.00;101260.41;4972239;28;20637;-79
2021/08/11 08:17:48;;;;;;;12.00;11.00;;;;;;;18.94;100.00;101267.38;4955758;29;20532;-78
2021/08/11 08:20:15;;;;;;;12.30;11.20;;;;;;;18.94;100.00;101267.38;4971111;28;20202;-79
2021/08/11 08:22:44;;;;;;;12.43;11.32;;;;;;;19.00;100.00;101266.16;4957099;29;20532;-78
2021/08/11 08:25:11;;;;;;;12.27;11.05;;;;;;;19.37;100.00;101260.25;4940634;28;20191;-80
2021/08/11 08:27:38;;;;;;;13.15;11.82;;;;;;;19.14;100.00;101268.84;4956388;29;20183;-80
2021/08/11 08:30:05;;;;;;;13.15;11.88;;;;;;;19.34;100.00;101266.41;4956775;28;20211;-78
2021/08/11 08:32:31;;;;;;;11.98;10.77;;;;;;;19.22;100.00;101255.13;4958667;29;20608;-78
2021/08/11 08:34:57;;;;;;;12.13;10.68;;;;;;;19.37;100.00;101249.22;4957324;28;20214;-78
2021/08/11 08:37:30;;;;;;;12.00;10.95;;;;;;;19.81;100.00;101250.78;4957635;28;20257;-79
2021/08/11 08:39:56;;;;;;;11.45;10.30;;;;;;;20.40;100.00;101247.38;4941075;29;20242;-78
2021/08/11 08:42:22;;;;;;;10.63;9.60;;;;;;;20.64;100.00;101249.41;4954895;29;20227;-78
2021/08/11 08:44:47;;;;;;;9.88;8.82;;;;;;;20.88;100.00;101241.44;4935793;28;20606;-77
2021/08/11 08:47:14;;;;;;;8.93;8.05;;;;;;;20.43;100.00;101249.50;4950662;28;20584;-77
2021/08/11 08:49:39;;;;;;;9.93;8.98;;;;;;;20.05;100.00;101253.94;4960398;28;20636;-79
2021/08/11 08:52:05;;;;;;;10.77;9.75;;;;;;;19.86;100.00;101244.31;4956070;28;20219;-78
2021/08/11 08:54:34;;;;;;;6.53;5.88;;;;;;;20.07;100.00;101254.44;4939242;29;20612;-77
2021/08/11 08:57:00;;;;;;;5.20;4.63;;;;;;;20.47;100.00;101248.53;4955737;29;20235;-79
2021/08/11 08:59:28;;;;;;;7.60;5.30;;;;;;;20.78;100.00;101254.75;4963189;28;20193;-78
2021/08/11 09:01:56;;;;;;;6.50;4.78;;;;;;;20.84;100.00;101259.78;4956704;28;20286;-78
2021/08/11 09:04:22;;;;;;;5.75;4.40;;;;;;;20.56;100.00;101255.69;4955282;28;20171;-78
2021/08/11 09:06:47;;;;;;;7.18;4.63;;;;;;;20.69;100.00;101251.97;4953958;29;20988;-78
2021/08/11 09:09:13;;;;;;;6.20;4.60;;;;;;;20.83;100.00;101256.22;4938523;29;20200;-78
2021/08/11 09:11:40;;;;;;;7.68;4.40;;;;;;;20.66;100.00;101251.81;4955518;29;20285;-79
2021/08/11 09:14:25;;;;;;;5.07;4.35;;;;;;;20.47;100.00;101260.41;4956494;29;20207;-77
2021/08/11 09:16:55;;;;;;;5.90;4.03;;;;;;;20.49;100.00;101258.13;4939826;29;20218;-80
2021/08/11 09:19:21;;;;;;;5.43;4.05;;;;;;;20.30;100.00;101258.72;4957180;29;20186;-78
2021/08/11 09:22:00;;;;;;;5.68;4.00;;;;;;;20.46;100.00;101263.47;4969827;28;20223;-77
2021/08/11 09:24:28;;;;;;;5.10;4.10;;;;;;;20.27;100.00;101264.88;4957432;28;20241;-81
2021/08/11 09:26:58;;;;;;;8.13;4.95;;;;;;;20.14;100.00;101261.09;4955904;29;20215;-78
2021/08/11 09:29:24;;;;;;;6.18;4.03;;;;;;;20.22;100.00;101270.56;4939909;29;20187;-78
2021/08/11 09:31:49;;;;;;;4.88;3.80;;;;;;;20.44;100.00;101272.06;4969200;28;20767;-77
2021/08/11 09:34:16;;;;;;;5.43;4.88;;;;;;;20.66;100.00;101271.16;4938617;29;20199;-77
2021/08/11 09:36:52;;;;;;;5.68;5.00;;;;;;;20.62;100.00;101273.78;4956574;28;20226;-78
2021/08/11 09:39:18;;;;;;;6.63;4.65;;;;;;;20.65;100.00;101273.09;4955900;29;20194;-79
2021/08/11 09:41:58;;;;;;;6.35;4.72;;;;;;;20.73;100.00;101274.25;4956329;28;20663;-79
2021/08/11 09:44:24;;;;;;;7.88;4.80;;;;;;;20.77;100.00;101276.06;4956711;28;20186;-79
2021/08/11 09:46:52;;;;;;;4.93;4.00;;;;;;;20.57;100.00;101271.13;4940153;28;20597;-79
2021/08/11 09:49:19;;;;;;;5.63;4.78;;;;;;;20.65;100.00;101275.88;4971495;28;20275;-80
2021/08/11 09:51:56;;;;;;;7.32;4.20;;;;;;;20.68;100.00;101278.00;4956427;29;20231;-79
2021/08/11 09:54:28;;;;;;;5.55;4.05;;;;;;;20.63;100.00;101283.66;4955439;29;20633;-79
2021/08/11 09:56:54;;;;;;;4.70;3.10;;;;;;;20.42;100.00;101279.06;4953800;28;20227;-78
2021/08/11 09:59:19;;;;;;;4.60;3.60;;;;;;;20.59;100.00;101274.38;4969420;28;20675;-76
2021/08/11 10:01:48;;;;;;;3.78;3.40;;;;;;;20.85;100.00;101284.31;4954079;28;20223;-79
2021/08/11 10:04:19;;;;;;;3.90;3.42;;;;;;;21.13;100.00;101273.75;4955559;28;20210;-77
2021/08/11 10:06:47;;;;;;;4.18;3.05;;;;;;;21.39;100.00;101262.34;4956320;28;20609;-79
2021/08/11 10:09:22;;;;;;;3.38;3.08;;;;;;;22.13;96.24;101261.59;4942629;29;20250;-78
2021/08/11 10:11:58;;;;;;;4.07;3.67;;;;;;;22.47;92.17;101265.00;4957813;28;20597;-78
2021/08/11 10:14:28;;;;;;;4.13;3.45;;;;;;;22.52;88.71;101262.03;4958922;29;20206;-77
2021/08/11 10:16:58;;;;;;;4.50;3.30;;;;;;;22.58;86.80;101269.00;4957285;28;20226;-79
2021/08/11 10:19:32;;;;;;;3.92;3.13;;;;;;;22.38;91.62;101272.56;4959354;28;20193;-78
2021/08/11 10:22:05;;;;;;;5.55;3.50;;;;;;;22.47;93.47;101273.31;4974095;28;20720;-77
2021/08/11 10:24:31;;;;;;;4.15;3.10;;;;;;;22.66;88.47;101276.47;4929147;29;20194;-79
2021/08/11 10:27:02;;;;;;;4.30;2.80;;;;;;;23.00;84.42;101277.84;4943755;28;20219;-78
2021/08/11 10:29:28;;;;;;;4.75;2.97;;;;;;;22.84;81.68;101273.22;4941776;29;20187;-77
2021/08/11 10:31:54;;;;;;;3.65;2.60;;;;;;;22.82;80.24;101281.88;4929384;29;20230;-79
2021/08/11 10:34:20;;;;;;;3.03;2.45;;;;;;;22.95;76.99;101278.03;4961277;28;20214;-79
2021/08/11 10:36:46;;;;;;;3.38;2.53;;;;;;;22.36;87.01;101274.84;4937423;28;20306;-76
2021/08/11 10:39:15;;;;;;;3.55;2.60;;;;;;;22.10;83.10;101284.41;4955569;29;20187;-79
2021/08/11 10:41:40;;;;;;;2.88;2.38;;;;;;;22.51;80.38;101288.13;4974289;28;20261;-79
2021/08/11 10:44:25;;;;;;;3.53;2.55;;;;;;;22.24;84.04;101285.84;4912963;29;20175;-80
2021/08/11 10:46:58;;;;;;;3.10;2.63;;;;;;;21.34;86.02;101292.91;4951247;28;20613;-75
2021/08/11 10:49:29;;;;;;;4.38;2.63;;;;;;;21.66;90.71;101284.88;4941522;28;20183;-80
2021/08/11 10:52:06;;;;;;;4.30;3.20;;;;;;;21.97;92.39;101292.94;4958212;28;20261;-79
2021/08/11 10:54:53;;;;;;;3.22;2.92;;;;;;;22.51;87.82;101296.44;4974676;28;20219;-78
2021/08/11 10:57:34;;;;;;;4.32;2.30;;;;;;;22.74;85.75;101294.97;4957202;28;20313;-77
2021/08/11 11:00:00;;;;;;;2.85;2.65;;;;;;;22.12;83.76;101293.19;4955158;29;20250;-76
2021/08/11 11:02:41;;;;;;;2.63;2.20;;;;;;;22.51;86.51;101299.22;4941315;29;20226;-80
2021/08/11 11:05:31;;;;;;;2.78;2.13;;;;;;;22.77;75.09;101298.69;4938280;28;20183;-73
2021/08/11 11:08:13;;;;;;;2.75;2.42;;;;;;;22.90;79.81;101294.88;4959261;28;20230;-78
2021/08/11 11:10:47;;;;;;;3.17;2.05;;;;;;;22.83;80.34;101289.03;4957475;28;20227;-77
2021/08/11 11:13:37;;;;;;;3.47;2.30;;;;;;;23.08;78.34;101295.56;4941884;29;20210;-79